createdAt,value
2023-03-22T00:02:14.699Z,0.52
2023-03-22T00:05:10.799Z,0.88
2023-03-22T00:08:00.969Z,0.50
2023-03-22T00:10:29.069Z,0.47
2023-03-22T00:12:55.774Z,1.05
2023-03-22T00:15:22.597Z,0.80
2023-03-22T00:17:52.331Z,0.47
2023-03-22T00:20:20.852Z,1.33
2023-03-22T00:22:47.363Z,0.80
2023-03-22T00:25:13.826Z,0.68
2023-03-22T00:27:40.397Z,0.55
2023-03-22T00:30:08.051Z,0.30
2023-03-22T00:32:36.016Z,0.57
2023-03-22T00:35:03.937Z,0.73
2023-03-22T00:37:34.291Z,1.05
2023-03-22T00:40:01.281Z,0.70
2023-03-22T00:42:28.457Z,0.55
2023-03-22T00:44:54.877Z,0.70
2023-03-22T00:47:21.377Z,0.57
2023-03-22T00:49:49.351Z,0.57
2023-03-22T00:52:15.810Z,0.70
2023-03-22T00:54:42.289Z,1.13
2023-03-22T00:57:08.728Z,0.80
2023-03-22T00:59:38.587Z,0.52
2023-03-22T01:02:05.811Z,0.63
2023-03-22T01:04:35.475Z,0.70
2023-03-22T01:07:05.618Z,0.85
2023-03-22T01:09:33.762Z,0.60
2023-03-22T01:12:01.808Z,0.80
2023-03-22T01:14:28.646Z,0.32
2023-03-22T01:16:57.279Z,0.75
2023-03-22T01:19:24.605Z,0.55
2023-03-22T01:21:51.029Z,0.60
2023-03-22T01:24:17.408Z,0.40
2023-03-22T01:26:43.781Z,0.68
2023-03-22T01:29:10.399Z,0.80
2023-03-22T01:31:36.990Z,0.82
2023-03-22T01:34:03.900Z,0.83
2023-03-22T01:36:30.563Z,0.57
2023-03-22T01:38:57.040Z,0.50
2023-03-22T01:41:23.562Z,0.50
2023-03-22T01:44:09.282Z,1.02
2023-03-22T01:46:36.557Z,1.80
2023-03-22T01:49:05.035Z,0.40
2023-03-22T01:51:32.043Z,0.30
2023-03-22T01:54:04.035Z,0.55
2023-03-22T01:56:34.514Z,0.40
2023-03-22T01:59:01.616Z,0.60
2023-03-22T02:01:30.226Z,0.50
2023-03-22T02:04:08.192Z,0.47
2023-03-22T02:06:38.293Z,0.45
2023-03-22T02:09:11.089Z,0.50
2023-03-22T02:11:42.810Z,0.38
2023-03-22T02:14:12.259Z,0.43
2023-03-22T02:16:50.826Z,0.65
2023-03-22T02:19:29.255Z,0.55
2023-03-22T02:22:01.490Z,1.38
2023-03-22T02:24:45.750Z,0.73
2023-03-22T02:27:40.394Z,0.63
2023-03-22T02:30:31.538Z,0.60
2023-03-22T02:33:16.402Z,0.70
2023-03-22T02:36:16.739Z,0.60
2023-03-22T02:39:01.309Z,0.80
2023-03-22T02:41:40.295Z,1.20
2023-03-22T02:44:15.839Z,1.20
2023-03-22T02:47:05.052Z,1.30
2023-03-22T02:49:37.720Z,2.00
2023-03-22T02:52:07.205Z,1.77
2023-03-22T02:54:44.582Z,1.60
2023-03-22T02:57:28.390Z,2.03
2023-03-22T02:59:56.903Z,2.50
2023-03-22T03:02:26.685Z,2.88
2023-03-22T03:04:54.122Z,3.00
2023-03-22T03:07:25.554Z,2.85
2023-03-22T03:09:52.656Z,3.08
2023-03-22T03:12:23.220Z,3.38
2023-03-22T03:14:49.659Z,2.90
2023-03-22T03:17:34.089Z,3.53
2023-03-22T03:20:31.201Z,3.85
2023-03-22T03:23:35.222Z,3.92
2023-03-22T03:26:23.029Z,5.78
2023-03-22T03:28:52.502Z,4.13
2023-03-22T03:31:31.505Z,4.70
2023-03-22T03:34:17.058Z,3.97
2023-03-22T03:36:50.993Z,4.68
2023-03-22T03:39:19.994Z,4.05
2023-03-22T03:41:50.228Z,4.95
2023-03-22T03:44:17.814Z,5.37
2023-03-22T03:46:45.831Z,5.13
2023-03-22T03:49:14.107Z,4.75
2023-03-22T03:51:49.825Z,4.10
2023-03-22T03:54:16.366Z,5.53
2023-03-22T03:56:42.834Z,5.13
2023-03-22T03:59:09.301Z,5.35
2023-03-22T04:01:36.177Z,4.78
2023-03-22T04:04:02.639Z,4.35
2023-03-22T04:06:29.065Z,5.00
2023-03-22T04:08:56.543Z,4.80
2023-03-22T04:11:23.039Z,4.78
2023-03-22T04:13:49.456Z,4.63
2023-03-22T04:16:16.068Z,4.45
2023-03-22T04:18:42.613Z,4.63
2023-03-22T04:21:09.097Z,4.17
2023-03-22T04:23:35.608Z,4.00
2023-03-22T04:26:02.269Z,4.75
2023-03-22T04:28:28.840Z,4.45
2023-03-22T04:30:57.800Z,4.45
2023-03-22T04:33:24.281Z,4.23
2023-03-22T04:35:56.657Z,4.93
2023-03-22T04:38:25.208Z,3.95
2023-03-22T04:40:51.756Z,4.70
2023-03-22T04:43:18.945Z,4.20
2023-03-22T04:45:46.177Z,4.30
2023-03-22T04:48:12.678Z,3.75
2023-03-22T04:50:40.371Z,4.32
2023-03-22T04:53:08.102Z,4.10
2023-03-22T04:55:34.504Z,3.80
2023-03-22T04:58:01.014Z,3.67
2023-03-22T05:00:30.045Z,4.63
2023-03-22T05:02:57.296Z,3.70
2023-03-22T05:05:24.011Z,4.20
2023-03-22T05:07:50.394Z,4.00
2023-03-22T05:10:16.871Z,3.73
2023-03-22T05:12:43.241Z,3.83
2023-03-22T05:15:09.870Z,4.40
2023-03-22T05:17:36.260Z,3.65
2023-03-22T05:20:09.259Z,3.20
2023-03-22T05:22:40.455Z,3.38
2023-03-22T05:25:10.248Z,3.30
2023-03-22T05:27:38.996Z,3.13
2023-03-22T05:30:06.543Z,3.30
2023-03-22T05:32:33.013Z,3.25
2023-03-22T05:35:04.697Z,2.90
2023-03-22T05:37:31.619Z,3.53
2023-03-22T05:39:58.167Z,4.03
2023-03-22T05:42:24.591Z,2.75
2023-03-22T05:44:51.312Z,2.88
2023-03-22T05:47:17.729Z,3.07
2023-03-22T05:49:44.192Z,2.65
2023-03-22T05:52:10.969Z,2.90
2023-03-22T05:54:37.336Z,2.78
2023-03-22T05:57:03.809Z,2.85
2023-03-22T05:59:30.291Z,2.50
2023-03-22T06:01:56.694Z,2.72
2023-03-22T06:04:23.281Z,2.35
2023-03-22T06:06:50.393Z,2.70
2023-03-22T06:09:18.076Z,2.30
2023-03-22T06:11:44.788Z,2.40
2023-03-22T06:14:11.512Z,1.90
2023-03-22T06:16:38.056Z,2.53
2023-03-22T06:19:04.612Z,2.05
2023-03-22T06:21:31.135Z,2.17
2023-03-22T06:23:57.689Z,1.73
2023-03-22T06:26:24.187Z,2.10
2023-03-22T06:28:50.974Z,2.03
2023-03-22T06:31:17.522Z,1.83
2023-03-22T06:33:45.415Z,1.65
2023-03-22T06:36:11.894Z,1.93
2023-03-22T06:38:38.388Z,1.77
2023-03-22T06:41:05.279Z,2.15
2023-03-22T06:43:31.845Z,2.33
2023-03-22T06:45:58.396Z,1.60
2023-03-22T06:48:25.030Z,1.37
2023-03-22T06:50:51.608Z,1.65
2023-03-22T06:53:18.209Z,2.47
2023-03-22T06:55:44.622Z,1.85
2023-03-22T06:58:11.259Z,1.80
2023-03-22T07:00:39.018Z,1.23
2023-03-22T07:03:05.792Z,2.05
2023-03-22T07:05:32.379Z,1.77
2023-03-22T07:07:58.812Z,2.60
2023-03-22T07:10:25.488Z,1.25
2023-03-22T07:12:51.973Z,1.00
2023-03-22T07:15:20.021Z,1.10
2023-03-22T07:17:46.386Z,1.00
2023-03-22T07:20:12.971Z,1.23
2023-03-22T07:22:39.521Z,1.50
2023-03-22T07:25:06.364Z,0.70
2023-03-22T07:27:32.805Z,0.98
2023-03-22T07:29:59.278Z,1.00
2023-03-22T07:32:25.977Z,0.88
2023-03-22T07:34:52.486Z,0.75
2023-03-22T07:37:18.932Z,0.70
2023-03-22T07:39:45.460Z,0.85
2023-03-22T07:42:12.094Z,0.80
2023-03-22T07:44:38.548Z,1.50
2023-03-22T07:47:05.359Z,0.93
2023-03-22T07:49:32.409Z,1.02
2023-03-22T07:51:58.939Z,0.57
2023-03-22T07:54:33.326Z,2.15
2023-03-22T07:57:01.559Z,0.82
2023-03-22T07:59:28.389Z,0.70
2023-03-22T08:01:57.366Z,0.75
2023-03-22T08:04:23.852Z,0.50
2023-03-22T08:06:51.285Z,0.68
2023-03-22T08:09:18.331Z,1.15
2023-03-22T08:11:45.821Z,1.40
2023-03-22T08:14:12.257Z,0.88
2023-03-22T08:16:38.866Z,0.50
2023-03-22T08:19:06.016Z,1.05
2023-03-22T08:21:32.606Z,1.15
2023-03-22T08:23:59.135Z,1.05
2023-03-22T08:26:26.176Z,0.40
2023-03-22T08:28:52.766Z,0.82
2023-03-22T08:31:20.121Z,0.80
2023-03-22T08:33:47.074Z,0.68
2023-03-22T08:36:16.648Z,0.93
2023-03-22T08:38:44.817Z,1.00
2023-03-22T08:41:12.756Z,1.25
2023-03-22T08:43:39.347Z,0.60
2023-03-22T08:46:06.219Z,1.10
2023-03-22T08:48:32.808Z,0.98
2023-03-22T08:51:01.076Z,0.85
2023-03-22T08:53:28.009Z,1.20
2023-03-22T08:55:57.946Z,0.75
2023-03-22T08:58:24.865Z,0.85
2023-03-22T09:00:51.596Z,1.20
2023-03-22T09:03:18.128Z,0.77
2023-03-22T09:05:44.586Z,0.57
2023-03-22T09:08:18.661Z,0.50
2023-03-22T09:10:52.602Z,1.95
2023-03-22T09:13:20.016Z,0.50
2023-03-22T09:15:47.125Z,0.63
2023-03-22T09:18:16.521Z,0.88
2023-03-22T09:20:44.612Z,0.60
2023-03-22T09:23:11.846Z,1.17
2023-03-22T09:25:38.746Z,0.55
2023-03-22T09:28:11.094Z,0.95
2023-03-22T09:30:38.371Z,0.55
2023-03-22T09:33:12.030Z,1.02
2023-03-22T09:35:43.182Z,0.47
2023-03-22T09:38:10.534Z,0.52
2023-03-22T09:40:43.522Z,1.33
2023-03-22T09:43:13.606Z,0.50
2023-03-22T09:45:48.281Z,0.60
2023-03-22T09:48:21.655Z,0.80
2023-03-22T09:50:51.490Z,0.70
2023-03-22T09:53:18.459Z,1.02
2023-03-22T09:56:07.124Z,0.30
2023-03-22T09:58:39.598Z,0.50
2023-03-22T10:01:35.673Z,0.63
2023-03-22T10:04:26.142Z,0.70
2023-03-22T10:07:16.340Z,1.10
2023-03-22T10:10:12.603Z,0.77
2023-03-22T10:13:07.751Z,0.63
2023-03-22T10:15:41.983Z,0.88
2023-03-22T10:18:16.362Z,0.65
2023-03-22T10:20:57.287Z,2.03
2023-03-22T10:23:35.738Z,1.02
2023-03-22T10:26:04.465Z,0.82
2023-03-22T10:28:39.154Z,0.70
2023-03-22T10:31:06.978Z,1.35
2023-03-22T10:33:50.532Z,0.90
2023-03-22T10:36:20.862Z,0.80
2023-03-22T10:38:54.544Z,1.15
2023-03-22T10:41:25.582Z,1.15
2023-03-22T10:44:00.512Z,1.15
2023-03-22T10:46:34.116Z,0.77
2023-03-22T10:49:02.412Z,1.45
2023-03-22T10:51:47.790Z,0.77
2023-03-22T10:54:17.313Z,0.70
2023-03-22T10:56:45.134Z,0.60
2023-03-22T10:59:51.388Z,0.65
2023-03-22T11:02:29.664Z,0.68
2023-03-22T11:05:03.838Z,0.70
2023-03-22T11:07:36.887Z,0.50
2023-03-22T11:10:09.920Z,0.77
2023-03-22T11:12:45.636Z,0.70
2023-03-22T11:15:30.777Z,0.60
2023-03-22T11:18:07.005Z,0.60
2023-03-22T11:20:35.719Z,0.90
2023-03-22T11:23:07.223Z,0.50
2023-03-22T11:25:39.062Z,0.75
2023-03-22T11:28:23.843Z,0.60
2023-03-22T11:31:07.734Z,0.60
2023-03-22T11:33:37.536Z,0.40
2023-03-22T11:36:18.140Z,0.63
2023-03-22T11:38:47.428Z,0.50
2023-03-22T11:41:23.884Z,0.40
2023-03-22T11:44:03.759Z,0.50
2023-03-22T11:46:32.213Z,0.68
2023-03-22T11:49:05.198Z,0.75
2023-03-22T11:51:37.176Z,0.50
2023-03-22T11:54:11.177Z,0.35
2023-03-22T11:56:43.548Z,0.90
2023-03-22T11:59:40.582Z,0.55
2023-03-22T12:02:23.933Z,0.40
2023-03-22T12:05:00.770Z,0.80
2023-03-22T12:07:32.572Z,1.05
2023-03-22T12:10:21.868Z,0.70
2023-03-22T12:13:00.870Z,0.52
2023-03-22T12:15:41.123Z,0.47
2023-03-22T12:18:23.206Z,0.60
2023-03-22T12:20:56.897Z,0.65
2023-03-22T12:23:30.447Z,0.63
2023-03-22T12:26:09.018Z,0.43
2023-03-22T12:28:56.751Z,0.40
2023-03-22T12:31:31.946Z,0.70
2023-03-22T12:34:03.987Z,0.95
2023-03-22T12:36:41.566Z,0.50
2023-03-22T12:39:30.338Z,1.67
2023-03-22T12:42:03.171Z,0.50
2023-03-22T12:44:38.282Z,0.37
2023-03-22T12:47:19.079Z,0.60
2023-03-22T12:50:06.265Z,0.40
2023-03-22T12:52:44.777Z,0.38
2023-03-22T12:55:23.454Z,0.57
2023-03-22T12:57:54.941Z,0.45
2023-03-22T13:00:48.568Z,0.82
2023-03-22T13:03:21.890Z,0.80
2023-03-22T13:05:50.801Z,0.60
2023-03-22T13:08:22.388Z,0.45
2023-03-22T13:11:01.726Z,0.40
2023-03-22T13:13:28.218Z,0.95
2023-03-22T13:16:09.021Z,0.45
2023-03-22T13:18:35.548Z,0.60
2023-03-22T13:21:12.557Z,0.40
2023-03-22T13:24:10.127Z,0.50
2023-03-22T13:26:48.218Z,0.47
2023-03-22T13:29:22.052Z,0.50
2023-03-22T13:31:51.507Z,1.10
2023-03-22T13:34:31.522Z,0.45
2023-03-22T13:36:59.431Z,0.40
2023-03-22T13:39:34.735Z,0.45
2023-03-22T13:42:38.036Z,0.73
2023-03-22T13:45:08.996Z,0.50
2023-03-22T13:47:45.448Z,0.63
2023-03-22T13:50:23.570Z,0.70
2023-03-22T13:52:59.931Z,0.73
2023-03-22T13:56:03.912Z,0.70
2023-03-22T13:58:36.571Z,0.60
2023-03-22T14:01:08.141Z,0.50
2023-03-22T14:03:42.922Z,0.60
2023-03-22T14:06:29.023Z,0.45
2023-03-22T14:09:06.140Z,1.20
2023-03-22T14:12:00.166Z,0.80
2023-03-22T14:14:32.834Z,1.20
2023-03-22T14:17:21.119Z,0.87
2023-03-22T14:19:49.688Z,1.08
